Tropical Cyclones
[Index]
Main Index Home Page Stock Weather Photos Extreme Storms Discussion Storm News and Storm Chasing Reports Tropical Cyclones / Hurricanes / Typhoons Weather Data and Links Wild Fires / Bushfires Weather Observation Techniques Weather Picture Catalogue Tornado Pictures and Reports Stock Video Footage and DVDs for sale
Season 1993-1994 Tropical Cyclone LITANNE Track Map
Season 1993-1994 Summaries: [BoM-AU] [JTWC-AU] [JTWC-SIO] [JTWC-SPAC] [JTWC-SH]
<<- Previous TC | JTWC 1993-1994 Season | Next TC ->>

click for intensity scale information  Lat/long Grid: Show Hide

 Date Labels: Show Hide

Joint Typhoon Warning Centre Cyclone Data

Name: LITANNE

05 Mar 1994 00:00 UTC to 17 Mar 1994 18:00 UTC

    date/time    lat    long     hPa   cat  kts
1994-03-05 00   12.8    98.6                  25          
1994-03-05 06   12.8    98.3                  25          
1994-03-05 12   12.8    97.9                  25          
1994-03-05 18   12.8    97.6                  25          
1994-03-06 00   12.8    97.2                  25          
1994-03-06 06   12.9    96.5                  25          
1994-03-06 12   13.0    95.5                  25          
1994-03-06 18   13.0    94.4                  25          
1994-03-07 00   13.1    93.2                  25          
1994-03-07 06   13.3    92.0                  25          
1994-03-07 12   13.6    90.9                  30          
1994-03-07 18   14.0    89.6                  35          
1994-03-08 00   14.3    88.2            1     40          
1994-03-08 06   14.4    86.8            1     45          
1994-03-08 12   14.5    85.4            1     50          
1994-03-08 18   14.6    84.1            2     55          
1994-03-09 00   14.7    82.8            2     65          
1994-03-09 06   15.0    81.6            3     75          
1994-03-09 12   15.1    80.4            3     85          
1994-03-09 18   15.2    79.2            3     95          
1994-03-10 00   15.2    77.7            4    105          
1994-03-10 06   15.2    75.9            4    110          
1994-03-10 12   15.1    74.3            4    110          
1994-03-10 18   14.9    72.7            4    115          
1994-03-11 00   14.8    71.2            4    120          
1994-03-11 06   14.7    69.8            5    125          
1994-03-11 12   14.7    68.2            5    125          
1994-03-11 18   14.7    66.7            4    120          
1994-03-12 00   14.9    65.1            4    115          
1994-03-12 06   15.3    63.5            4    115          
1994-03-12 12   15.6    62.1            4    120          
1994-03-12 18   16.2    60.6            5    125          
1994-03-13 00   16.7    59.3            4    120          
1994-03-13 06   17.2    58.0            4    120          
1994-03-13 12   17.6    57.1            4    120          
1994-03-13 18   17.9    56.2            5    130          
1994-03-14 00   18.2    55.2            5    130          
1994-03-14 06   18.4    54.2            5    130          
1994-03-14 12   18.5    53.2            5    125          
1994-03-14 18   18.5    52.3            4    120          
1994-03-15 00   18.5    51.5            4    120          
1994-03-15 06   18.5    50.7            4    120          
1994-03-15 12   18.5    49.9            4    115          
1994-03-15 18   18.4    49.2            4    110          
1994-03-16 00   18.6    48.8            3     85          
1994-03-16 06   19.1    48.4            2     70          
1994-03-16 12   19.8    48.1            2     55          
1994-03-16 18   20.4    48.0            1     45          
1994-03-17 00   21.1    48.0                  35          
1994-03-17 06   22.0    47.9                  35          
1994-03-17 12   23.2    48.2                  30          
1994-03-17 18   24.6    48.8                  25          
Winds are 1-min average.

Tropical cyclone tracks developed by Michael Bath using data from the Joint Typhoon Warning Centre Best Tracks and Google Maps.


[Australian Severe Weather index] [Copyright Notice] [Email Contacts] [Search This Site] [Privacy Policy]
Document: tropical_cyclone_litanne.htm Updated: 18 September 2016